createdAt,value
2023-02-02T00:01:52.958Z,3.47
2023-02-02T00:04:29.785Z,4.03
2023-02-02T00:09:41.694Z,3.97
2023-02-02T00:12:09.714Z,5.15
2023-02-02T00:14:36.704Z,7.93
2023-02-02T00:17:05.275Z,5.65
2023-02-02T00:19:32.600Z,3.60
2023-02-02T00:21:59.849Z,4.68
2023-02-02T00:24:27.365Z,5.93
2023-02-02T00:26:59.469Z,5.68
2023-02-02T00:29:31.911Z,4.18
2023-02-02T00:31:58.972Z,3.55
2023-02-02T00:34:26.074Z,7.70
2023-02-02T00:36:53.326Z,9.18
2023-02-02T00:39:23.274Z,5.65
2023-02-02T00:41:50.290Z,3.08
2023-02-02T00:44:36.778Z,5.15
2023-02-02T00:47:04.502Z,6.15
2023-02-02T00:49:31.826Z,3.55
2023-02-02T00:52:00.621Z,5.10
2023-02-02T00:54:28.362Z,4.28
2023-02-02T00:56:55.492Z,6.55
2023-02-02T00:59:22.572Z,5.80
2023-02-02T01:01:49.625Z,6.35
2023-02-02T01:04:16.762Z,7.85
2023-02-02T01:06:43.879Z,4.47
2023-02-02T01:09:10.943Z,5.15
2023-02-02T01:11:37.960Z,6.43
2023-02-02T01:14:05.789Z,6.72
2023-02-02T01:16:33.319Z,7.22
2023-02-02T01:19:00.369Z,6.97
2023-02-02T01:21:27.487Z,11.30
2023-02-02T01:23:54.481Z,8.40
2023-02-02T01:26:21.596Z,7.07
2023-02-02T01:28:48.696Z,7.15
2023-02-02T01:31:18.587Z,7.05
2023-02-02T01:33:47.310Z,8.35
2023-02-02T01:36:18.148Z,8.70
2023-02-02T01:38:45.803Z,6.65
2023-02-02T01:41:15.195Z,10.13
2023-02-02T01:43:42.272Z,8.02
2023-02-02T01:46:18.989Z,7.30
2023-02-02T01:49:09.199Z,7.95
2023-02-02T01:51:42.160Z,6.65
2023-02-02T01:54:14.228Z,5.95
2023-02-02T01:56:47.626Z,4.90
2023-02-02T01:59:16.911Z,5.05
2023-02-02T02:01:46.355Z,5.13
2023-02-02T02:04:14.147Z,7.45
2023-02-02T02:06:41.628Z,5.32
2023-02-02T02:09:08.833Z,6.75
2023-02-02T02:11:36.387Z,7.03
2023-02-02T02:14:25.336Z,9.82
2023-02-02T02:17:23.124Z,5.32
2023-02-02T02:20:32.262Z,5.22
2023-02-02T02:23:41.886Z,6.82
2023-02-02T02:26:34.242Z,6.53
2023-02-02T02:29:25.753Z,8.10
2023-02-02T02:32:16.694Z,5.93
2023-02-02T02:35:02.454Z,6.43
2023-02-02T02:37:41.595Z,5.32
2023-02-02T02:40:23.888Z,5.00
2023-02-02T02:42:58.335Z,5.00
2023-02-02T02:45:28.073Z,8.40
2023-02-02T02:47:55.563Z,7.95
2023-02-02T02:50:23.329Z,7.50
2023-02-02T02:52:57.896Z,7.10
2023-02-02T02:55:26.700Z,8.13
2023-02-02T02:58:12.871Z,5.82
2023-02-02T03:01:00.240Z,6.32
2023-02-02T03:03:54.698Z,5.53
2023-02-02T03:06:48.216Z,3.90
2023-02-02T03:09:26.035Z,4.95
2023-02-02T03:11:53.507Z,3.95
2023-02-02T03:14:20.656Z,4.03
2023-02-02T03:16:47.841Z,8.07
2023-02-02T03:19:15.501Z,5.78
2023-02-02T03:21:42.588Z,4.38
2023-02-02T03:24:09.579Z,6.60
2023-02-02T03:26:36.931Z,4.47
2023-02-02T03:29:04.391Z,4.28
2023-02-02T03:31:31.671Z,6.38
2023-02-02T03:33:58.763Z,2.55
2023-02-02T03:36:25.989Z,5.20
2023-02-02T03:38:52.989Z,8.85
2023-02-02T03:41:20.083Z,5.78
2023-02-02T03:43:47.115Z,8.90
2023-02-02T03:46:14.172Z,4.40
2023-02-02T03:48:41.272Z,3.75
2023-02-02T03:51:13.992Z,6.85
2023-02-02T03:53:45.314Z,8.93
2023-02-02T03:56:12.390Z,6.63
2023-02-02T03:58:39.491Z,6.70
2023-02-02T04:01:11.275Z,7.88
2023-02-02T04:03:38.420Z,7.55
2023-02-02T04:06:05.742Z,6.53
2023-02-02T04:08:34.281Z,6.05
2023-02-02T04:11:01.574Z,4.88
2023-02-02T04:13:28.591Z,5.57
2023-02-02T04:16:02.418Z,5.40
2023-02-02T04:18:29.661Z,5.13
2023-02-02T04:21:01.105Z,8.30
2023-02-02T04:23:29.370Z,9.32
2023-02-02T04:25:56.795Z,7.88
2023-02-02T04:28:24.520Z,7.45
2023-02-02T04:30:52.603Z,9.95
2023-02-02T04:33:20.290Z,11.77
2023-02-02T04:35:47.598Z,7.85
2023-02-02T04:38:14.742Z,6.88
2023-02-02T04:40:43.642Z,9.77
2023-02-02T04:43:11.544Z,9.65
2023-02-02T04:45:39.070Z,9.20
2023-02-02T04:48:06.511Z,13.00
2023-02-02T04:50:33.743Z,16.77
2023-02-02T04:53:00.859Z,13.43
2023-02-02T04:55:27.901Z,13.15
2023-02-02T04:57:54.910Z,15.27
2023-02-02T05:00:22.116Z,11.30
2023-02-02T05:02:49.303Z,15.52
2023-02-02T05:05:16.438Z,9.70
2023-02-02T05:07:43.573Z,12.30
2023-02-02T05:10:11.323Z,14.00
2023-02-02T05:12:38.522Z,12.20
2023-02-02T05:15:06.117Z,12.20
2023-02-02T05:17:34.109Z,12.95
2023-02-02T05:20:01.113Z,12.63
2023-02-02T05:22:28.187Z,15.05
2023-02-02T05:24:55.356Z,10.70
2023-02-02T05:27:22.414Z,13.75
2023-02-02T05:29:49.437Z,13.43
2023-02-02T05:32:16.627Z,13.68
2023-02-02T05:34:43.696Z,11.93
2023-02-02T05:37:10.884Z,15.57
2023-02-02T05:39:37.965Z,14.15
2023-02-02T05:42:05.075Z,16.40
2023-02-02T05:44:32.213Z,14.40
2023-02-02T05:46:59.244Z,11.25
2023-02-02T05:49:26.410Z,16.55
2023-02-02T05:51:57.468Z,14.88
2023-02-02T05:54:25.247Z,17.30
2023-02-02T05:56:54.958Z,17.00
2023-02-02T05:59:22.414Z,17.00
2023-02-02T06:01:49.785Z,15.45
2023-02-02T06:04:17.099Z,21.88
2023-02-02T06:06:44.549Z,17.10
2023-02-02T06:09:11.730Z,19.92
2023-02-02T06:11:39.686Z,11.45
2023-02-02T06:14:07.855Z,14.77
2023-02-02T06:16:35.167Z,21.00
2023-02-02T06:19:02.288Z,16.27
2023-02-02T06:21:31.530Z,16.17
2023-02-02T06:23:59.703Z,21.65
2023-02-02T06:26:27.304Z,17.08
2023-02-02T06:28:55.268Z,13.02
2023-02-02T06:31:22.463Z,18.98
2023-02-02T06:33:54.672Z,15.60
2023-02-02T06:36:22.750Z,9.15
2023-02-02T06:38:54.964Z,12.80
2023-02-02T06:41:22.088Z,16.63
2023-02-02T06:43:50.037Z,17.83
2023-02-02T06:46:17.550Z,13.57
2023-02-02T06:48:44.728Z,9.82
2023-02-02T06:51:11.804Z,17.13
2023-02-02T06:53:38.831Z,14.25
2023-02-02T06:56:09.201Z,17.33
2023-02-02T06:58:36.315Z,13.18
2023-02-02T07:01:11.484Z,12.93
2023-02-02T07:03:39.447Z,19.48
2023-02-02T07:06:23.040Z,18.52
2023-02-02T07:09:00.907Z,11.82
2023-02-02T07:11:31.240Z,11.45
2023-02-02T07:13:58.440Z,12.27
2023-02-02T07:16:25.705Z,12.68
2023-02-02T07:18:53.225Z,16.17
2023-02-02T07:21:25.207Z,17.50
2023-02-02T07:23:52.312Z,11.20
2023-02-02T07:26:20.201Z,10.95
2023-02-02T07:28:48.016Z,10.93
2023-02-02T07:31:23.347Z,9.25
2023-02-02T07:33:51.159Z,15.50
2023-02-02T07:36:20.334Z,13.35
2023-02-02T07:38:48.565Z,15.55
2023-02-02T07:41:16.594Z,10.02
2023-02-02T07:43:46.640Z,11.18
2023-02-02T07:46:14.598Z,10.68
2023-02-02T07:48:41.767Z,12.15
2023-02-02T07:51:12.115Z,15.35
2023-02-02T07:53:39.221Z,8.52
2023-02-02T07:56:07.897Z,11.57
2023-02-02T07:58:34.906Z,8.27
2023-02-02T08:01:06.710Z,7.20
2023-02-02T08:03:34.709Z,11.70
2023-02-02T08:06:08.821Z,16.63
2023-02-02T08:08:35.949Z,8.43
2023-02-02T08:11:02.976Z,8.70
2023-02-02T08:13:29.963Z,7.95
2023-02-02T08:15:59.944Z,10.25
2023-02-02T08:18:27.069Z,12.88
2023-02-02T08:20:54.172Z,8.55
2023-02-02T08:23:23.959Z,9.43
2023-02-02T08:25:51.409Z,9.43
2023-02-02T08:28:19.549Z,11.82
2023-02-02T08:30:47.251Z,10.05
2023-02-02T08:33:14.466Z,8.52
2023-02-02T08:35:44.547Z,11.57
2023-02-02T08:38:11.656Z,8.43
2023-02-02T08:40:38.669Z,11.30
2023-02-02T08:43:06.222Z,14.40
2023-02-02T08:46:03.353Z,10.75
2023-02-02T08:48:24.547Z,10.43
2023-02-02T08:50:55.789Z,11.85
2023-02-02T08:53:23.809Z,10.15
2023-02-02T08:56:00.156Z,11.02
2023-02-02T08:58:27.687Z,12.13
2023-02-02T09:00:55.029Z,13.70
2023-02-02T09:03:22.126Z,11.63
2023-02-02T09:05:49.235Z,16.58
2023-02-02T09:08:16.448Z,7.65
2023-02-02T09:10:43.661Z,14.65
2023-02-02T09:13:10.737Z,12.18
2023-02-02T09:15:38.984Z,10.77
2023-02-02T09:18:06.194Z,8.65
2023-02-02T09:20:33.156Z,15.77
2023-02-02T09:23:00.170Z,16.65
2023-02-02T09:25:29.168Z,19.40
2023-02-02T09:27:56.248Z,16.98
2023-02-02T09:30:23.315Z,16.25
2023-02-02T09:32:51.426Z,14.70
2023-02-02T09:35:18.551Z,15.65
2023-02-02T09:37:45.743Z,13.65
2023-02-02T09:40:19.563Z,11.25
2023-02-02T09:42:56.007Z,9.20
2023-02-02T09:45:40.972Z,9.40
2023-02-02T09:48:23.788Z,8.80
2023-02-02T09:50:57.224Z,15.52
2023-02-02T09:53:55.631Z,9.35
2023-02-02T09:56:39.230Z,9.15
2023-02-02T09:59:19.055Z,12.77
2023-02-02T10:01:50.811Z,10.80
2023-02-02T10:04:31.493Z,8.30
2023-02-02T10:07:06.265Z,7.47
2023-02-02T10:09:44.714Z,10.00
2023-02-02T10:12:22.528Z,8.57
2023-02-02T10:15:12.960Z,11.35
2023-02-02T10:17:49.279Z,12.57
2023-02-02T10:20:37.655Z,6.13
2023-02-02T10:23:14.108Z,14.77
2023-02-02T10:25:52.067Z,9.48
2023-02-02T10:28:21.001Z,7.60
2023-02-02T10:30:59.077Z,12.23
2023-02-02T10:33:32.027Z,7.32
2023-02-02T10:36:32.152Z,9.80
2023-02-02T10:39:24.380Z,7.07
2023-02-02T10:42:07.098Z,5.90
2023-02-02T10:44:57.443Z,2.53
2023-02-02T10:47:28.194Z,11.23
2023-02-02T10:50:11.084Z,5.05
2023-02-02T10:52:40.134Z,8.55
2023-02-02T10:55:22.374Z,7.65
2023-02-02T10:58:07.209Z,9.00
2023-02-02T11:00:42.546Z,11.13
2023-02-02T11:03:12.239Z,10.13
2023-02-02T11:05:57.763Z,10.88
2023-02-02T11:08:35.698Z,7.07
2023-02-02T11:11:33.450Z,8.02
2023-02-02T11:14:09.677Z,8.15
2023-02-02T11:16:43.975Z,5.50
2023-02-02T11:19:17.377Z,8.15
2023-02-02T11:21:50.180Z,11.40
2023-02-02T11:24:28.124Z,5.50
2023-02-02T11:27:13.240Z,7.88
2023-02-02T11:29:46.851Z,8.07
2023-02-02T11:32:26.853Z,11.40
2023-02-02T11:35:02.854Z,13.20
2023-02-02T11:37:35.063Z,15.10
2023-02-02T11:40:28.907Z,13.52
2023-02-02T11:42:58.942Z,14.65
2023-02-02T11:45:39.300Z,13.13
2023-02-02T11:48:16.995Z,19.50
2023-02-02T11:50:56.057Z,18.33
2023-02-02T11:53:36.281Z,11.73
2023-02-02T11:56:09.557Z,10.73
2023-02-02T11:58:50.799Z,12.63
2023-02-02T12:01:33.906Z,13.90
2023-02-02T12:04:02.958Z,14.07
2023-02-02T12:06:39.912Z,22.27
2023-02-02T12:09:20.034Z,28.65
2023-02-02T12:11:50.121Z,18.80
2023-02-02T12:14:29.242Z,20.73
2023-02-02T12:17:02.291Z,18.70
2023-02-02T12:19:44.404Z,10.70
2023-02-02T12:22:47.986Z,17.92
2023-02-02T12:25:15.105Z,20.65
2023-02-02T12:28:01.272Z,9.80
2023-02-02T12:31:03.560Z,9.45
2023-02-02T12:34:09.505Z,14.52
2023-02-02T12:36:50.625Z,11.73
2023-02-02T12:39:17.778Z,15.02
2023-02-02T12:41:50.362Z,15.68
2023-02-02T12:44:29.520Z,13.63
2023-02-02T12:46:59.135Z,21.15
2023-02-02T12:49:47.915Z,19.77
2023-02-02T12:52:28.961Z,20.08
2023-02-02T12:55:16.390Z,22.33
2023-02-02T12:58:07.595Z,18.00
2023-02-02T13:01:02.622Z,18.67
2023-02-02T13:03:37.453Z,28.75
2023-02-02T13:06:22.550Z,20.77
2023-02-02T13:09:01.121Z,25.88
2023-02-02T13:11:50.865Z,27.85
2023-02-02T13:14:24.626Z,21.50
2023-02-02T13:17:13.709Z,23.17
2023-02-02T13:19:47.396Z,28.23
2023-02-02T13:22:20.569Z,26.25
2023-02-02T13:24:49.967Z,23.75
2023-02-02T13:27:20.755Z,29.52
2023-02-02T13:29:56.215Z,30.15
2023-02-02T13:32:34.704Z,22.35
2023-02-02T13:35:06.451Z,22.10
2023-02-02T13:37:42.748Z,33.88
2023-02-02T13:40:15.328Z,26.35
2023-02-02T13:43:13.179Z,22.23
2023-02-02T13:45:52.207Z,21.88
2023-02-02T13:48:28.580Z,19.35
2023-02-02T13:51:20.418Z,20.35
2023-02-02T13:53:57.989Z,18.33
2023-02-02T13:57:04.492Z,25.90
2023-02-02T13:59:44.603Z,15.75
2023-02-02T14:02:43.372Z,24.98
2023-02-02T14:05:22.085Z,18.17
2023-02-02T14:07:54.944Z,18.20
2023-02-02T14:10:32.238Z,26.27
2023-02-02T14:13:53.313Z,22.55
2023-02-02T14:16:42.865Z,18.27
2023-02-02T14:19:28.456Z,24.80
2023-02-02T14:22:38.871Z,31.40
2023-02-02T14:25:47.922Z,30.63
2023-02-02T14:28:42.147Z,18.85
2023-02-02T14:31:28.751Z,18.67
2023-02-02T14:34:36.189Z,12.90
2023-02-02T14:37:17.865Z,21.05
2023-02-02T14:39:55.435Z,24.15
2023-02-02T14:42:52.881Z,27.65
2023-02-02T14:45:48.295Z,22.65
2023-02-02T14:48:23.943Z,27.85
2023-02-02T14:50:59.320Z,22.75
2023-02-02T14:53:28.855Z,20.95
2023-02-02T14:56:04.493Z,23.48
2023-02-02T14:58:36.343Z,22.73
2023-02-02T15:01:18.618Z,19.42
2023-02-02T15:04:00.939Z,28.77
2023-02-02T15:06:36.611Z,29.33
2023-02-02T15:09:28.128Z,27.73
2023-02-02T15:12:03.726Z,22.85
2023-02-02T15:14:43.825Z,24.77
2023-02-02T15:17:17.402Z,30.58
2023-02-02T15:19:54.471Z,26.75
2023-02-02T15:22:25.158Z,32.03
2023-02-02T15:24:53.266Z,21.90
2023-02-02T15:27:25.354Z,32.17
2023-02-02T15:30:04.680Z,24.17
2023-02-02T15:32:32.915Z,24.58
2023-02-02T15:35:04.548Z,27.48
2023-02-02T15:37:40.563Z,18.40
2023-02-02T15:40:30.203Z,19.13
2023-02-02T15:43:03.683Z,20.08
2023-02-02T15:45:49.214Z,15.07
2023-02-02T15:48:34.054Z,19.50
2023-02-02T15:51:04.622Z,14.55
2023-02-02T15:53:48.639Z,23.10
2023-02-02T15:56:24.735Z,25.08
2023-02-02T15:58:54.313Z,23.45
2023-02-02T16:01:23.631Z,19.70
2023-02-02T16:03:53.020Z,23.60
2023-02-02T16:06:20.884Z,25.67
2023-02-02T16:08:49.359Z,25.35
2023-02-02T16:11:19.513Z,30.70
2023-02-02T16:13:59.069Z,27.05
2023-02-02T16:16:35.235Z,23.65
2023-02-02T16:19:04.083Z,31.27
2023-02-02T16:21:33.689Z,19.85
2023-02-02T16:24:01.914Z,27.20
2023-02-02T16:26:32.158Z,20.88
2023-02-02T16:28:59.592Z,25.42
2023-02-02T16:31:28.561Z,31.83
2023-02-02T16:33:57.116Z,24.35
2023-02-02T16:36:26.996Z,26.00
2023-02-02T16:38:55.224Z,23.30
2023-02-02T16:41:34.587Z,23.83
2023-02-02T16:44:40.297Z,30.88
2023-02-02T16:47:28.486Z,26.73
2023-02-02T16:50:10.494Z,20.60
2023-02-02T16:53:01.315Z,21.80
2023-02-02T16:55:47.979Z,27.48
2023-02-02T16:58:21.070Z,21.23
2023-02-02T17:01:16.313Z,23.85
2023-02-02T17:03:51.774Z,28.50
2023-02-02T17:06:31.257Z,29.73
2023-02-02T17:09:41.294Z,29.85
2023-02-02T17:12:32.149Z,22.00
2023-02-02T17:15:05.889Z,21.65
2023-02-02T17:17:32.959Z,27.77
2023-02-02T17:19:59.913Z,27.10
2023-02-02T17:22:30.305Z,18.35
2023-02-02T17:24:58.775Z,31.15
2023-02-02T17:27:33.995Z,26.98
2023-02-02T17:30:03.444Z,31.33
2023-02-02T17:32:31.000Z,25.85
2023-02-02T17:34:58.072Z,19.75
2023-02-02T17:37:25.020Z,25.38
2023-02-02T17:39:51.972Z,29.25
2023-02-02T17:42:26.543Z,28.75
2023-02-02T17:44:53.892Z,16.92
2023-02-02T17:47:20.871Z,31.77
2023-02-02T17:49:47.956Z,36.13
2023-02-02T17:52:14.989Z,31.88
2023-02-02T17:54:41.947Z,30.08
2023-02-02T17:57:09.401Z,32.47
2023-02-02T17:59:36.347Z,35.95
2023-02-02T18:02:03.416Z,18.40
2023-02-02T18:04:30.370Z,30.40
2023-02-02T18:06:57.320Z,21.40
2023-02-02T18:09:24.392Z,22.88
2023-02-02T18:11:51.356Z,41.42
2023-02-02T18:14:18.409Z,27.05
2023-02-02T18:16:45.467Z,29.95
2023-02-02T18:19:12.503Z,18.35
2023-02-02T18:21:39.554Z,22.30
2023-02-02T18:24:06.702Z,26.10
2023-02-02T18:26:34.854Z,16.98
2023-02-02T18:29:01.970Z,26.77
2023-02-02T18:31:29.056Z,21.30
2023-02-02T18:33:56.279Z,24.55
2023-02-02T18:36:23.957Z,19.80
2023-02-02T18:38:54.103Z,20.85
2023-02-02T18:41:24.016Z,14.60
2023-02-02T18:43:54.923Z,24.33
2023-02-02T18:46:21.978Z,19.63
2023-02-02T18:48:49.101Z,20.25
2023-02-02T18:51:18.377Z,23.00
2023-02-02T18:53:46.925Z,20.60
2023-02-02T18:56:15.394Z,21.48
2023-02-02T18:58:42.409Z,17.38
2023-02-02T19:01:15.688Z,20.80
2023-02-02T19:03:42.758Z,17.15
2023-02-02T19:06:28.505Z,21.17
2023-02-02T19:08:55.742Z,20.27
2023-02-02T19:11:24.783Z,20.80
2023-02-02T19:13:51.819Z,18.35
2023-02-02T19:16:26.157Z,15.48
2023-02-02T19:18:57.539Z,12.77
2023-02-02T19:21:29.561Z,13.77
2023-02-02T19:23:57.314Z,17.65
2023-02-02T19:26:26.108Z,22.23
2023-02-02T19:28:54.940Z,20.48
2023-02-02T19:31:22.116Z,16.05
2023-02-02T19:33:51.775Z,17.38
2023-02-02T19:36:24.377Z,14.57
2023-02-02T19:39:05.813Z,18.20
2023-02-02T19:41:32.831Z,18.20
2023-02-02T19:44:06.494Z,14.20
2023-02-02T19:46:39.331Z,16.27
2023-02-02T19:49:13.634Z,14.48
2023-02-02T19:51:42.078Z,19.05
2023-02-02T19:54:30.634Z,26.45
2023-02-02T19:57:00.649Z,17.15
2023-02-02T19:59:34.899Z,16.00
2023-02-02T20:02:23.637Z,18.50
2023-02-02T20:05:07.729Z,15.55
2023-02-02T20:07:34.782Z,23.05
2023-02-02T20:10:20.859Z,16.60
2023-02-02T20:12:48.177Z,17.88
2023-02-02T20:15:28.724Z,21.67
2023-02-02T20:17:58.473Z,19.00
2023-02-02T20:20:29.023Z,15.38
2023-02-02T20:22:57.667Z,18.48
2023-02-02T20:25:25.139Z,22.60
2023-02-02T20:27:54.564Z,19.23
2023-02-02T20:30:28.541Z,24.23
2023-02-02T20:32:58.721Z,19.38
2023-02-02T20:35:45.892Z,13.48
2023-02-02T20:38:24.575Z,24.13
2023-02-02T20:40:52.588Z,18.38
2023-02-02T20:43:19.676Z,19.08
2023-02-02T20:45:46.987Z,22.10
2023-02-02T20:48:15.545Z,15.70
2023-02-02T20:50:42.815Z,17.52
2023-02-02T20:53:10.924Z,30.60
2023-02-02T20:55:37.908Z,16.15
2023-02-02T20:58:05.022Z,21.33
2023-02-02T21:00:32.645Z,24.23
2023-02-02T21:02:59.579Z,16.05
2023-02-02T21:05:26.699Z,18.35
2023-02-02T21:07:55.177Z,20.67
2023-02-02T21:10:23.584Z,23.65
2023-02-02T21:12:52.004Z,21.42
2023-02-02T21:15:19.374Z,21.00
2023-02-02T21:17:46.515Z,17.05
2023-02-02T21:20:15.058Z,18.95
2023-02-02T21:22:42.231Z,18.70
2023-02-02T21:25:09.758Z,19.90
2023-02-02T21:27:37.761Z,17.17
2023-02-02T21:30:05.572Z,28.95
2023-02-02T21:32:33.876Z,22.40
2023-02-02T21:35:01.004Z,14.82
2023-02-02T21:37:27.993Z,20.50
2023-02-02T21:40:00.242Z,15.18
2023-02-02T21:42:28.731Z,17.52
2023-02-02T21:45:08.466Z,20.02
2023-02-02T21:47:37.655Z,22.08
2023-02-02T21:50:29.447Z,17.30
2023-02-02T21:53:25.093Z,25.10
2023-02-02T21:55:57.432Z,26.77
2023-02-02T21:58:27.981Z,22.05
2023-02-02T22:00:58.674Z,19.48
2023-02-02T22:03:38.697Z,20.13
2023-02-02T22:06:27.481Z,19.27
2023-02-02T22:09:02.222Z,31.40
2023-02-02T22:11:36.238Z,21.20
2023-02-02T22:14:31.921Z,26.77
2023-02-02T22:16:59.984Z,18.42
2023-02-02T22:19:34.269Z,22.73
2023-02-02T22:22:22.153Z,20.85
2023-02-02T22:25:17.096Z,19.17
2023-02-02T22:28:00.432Z,21.00
2023-02-02T22:30:29.849Z,17.07
2023-02-02T22:32:56.998Z,27.02
2023-02-02T22:35:24.217Z,22.52
2023-02-02T22:37:54.351Z,23.58
2023-02-02T22:40:24.987Z,21.23
2023-02-02T22:42:54.288Z,22.85
2023-02-02T22:45:21.973Z,26.05
2023-02-02T22:47:49.787Z,24.67
2023-02-02T22:50:23.054Z,24.83
2023-02-02T22:52:50.531Z,20.20
2023-02-02T22:55:17.879Z,23.08
2023-02-02T22:57:44.997Z,15.82
2023-02-02T23:00:23.583Z,25.00
2023-02-02T23:02:51.776Z,23.38
2023-02-02T23:05:20.066Z,21.48
2023-02-02T23:07:47.958Z,27.67
2023-02-02T23:10:20.424Z,22.35
2023-02-02T23:12:47.964Z,26.23
2023-02-02T23:15:15.694Z,25.85
2023-02-02T23:17:43.451Z,28.30
2023-02-02T23:20:13.188Z,26.13
2023-02-02T23:22:40.485Z,19.83
2023-02-02T23:25:07.821Z,17.40
2023-02-02T23:27:35.183Z,23.45
2023-02-02T23:30:02.391Z,23.83
2023-02-02T23:32:29.627Z,23.63
2023-02-02T23:34:56.615Z,23.80
2023-02-02T23:37:23.539Z,21.13
2023-02-02T23:39:50.553Z,24.33
2023-02-02T23:42:17.438Z,18.10
2023-02-02T23:44:44.374Z,18.27
2023-02-02T23:47:11.575Z,29.38
2023-02-02T23:49:38.657Z,23.10
2023-02-02T23:52:06.081Z,26.48
2023-02-02T23:54:33.647Z,23.92
2023-02-02T23:57:01.504Z,18.10
2023-02-02T23:59:28.569Z,19.50
